sensor_id;sensor_type;location;lat;lon;timestamp;P1;durP1;ratioP1;P2;durP2;ratioP2
10471;SDS011;5283;48.876;8.962;2023-04-24T00:01:20;1.53;;;0.77;;
10471;SDS011;5283;48.876;8.962;2023-04-24T00:03:47;1.00;;;0.60;;
10471;SDS011;5283;48.876;8.962;2023-04-24T00:06:14;1.80;;;0.80;;
10471;SDS011;5283;48.876;8.962;2023-04-24T00:08:43;1.53;;;1.07;;
10471;SDS011;5283;48.876;8.962;2023-04-24T00:11:11;3.73;;;1.00;;
10471;SDS011;5283;48.876;8.962;2023-04-24T00:13:38;1.50;;;0.90;;
10471;SDS011;5283;48.876;8.962;2023-04-24T00:16:06;4.23;;;1.03;;
10471;SDS011;5283;48.876;8.962;2023-04-24T00:18:33;0.90;;;0.80;;
10471;SDS011;5283;48.876;8.962;2023-04-24T00:21:00;0.97;;;0.70;;
10471;SDS011;5283;48.876;8.962;2023-04-24T00:23:27;0.70;;;0.70;;
10471;SDS011;5283;48.876;8.962;2023-04-24T00:25:54;1.20;;;0.70;;
10471;SDS011;5283;48.876;8.962;2023-04-24T00:28:20;1.63;;;0.60;;
10471;SDS011;5283;48.876;8.962;2023-04-24T00:30:47;3.33;;;0.80;;
10471;SDS011;5283;48.876;8.962;2023-04-24T00:33:15;2.03;;;1.07;;
10471;SDS011;5283;48.876;8.962;2023-04-24T00:35:42;1.17;;;0.60;;
10471;SDS011;5283;48.876;8.962;2023-04-24T00:38:08;2.20;;;0.63;;
10471;SDS011;5283;48.876;8.962;2023-04-24T00:40:35;1.13;;;0.80;;
10471;SDS011;5283;48.876;8.962;2023-04-24T00:43:02;1.20;;;0.77;;
10471;SDS011;5283;48.876;8.962;2023-04-24T00:45:29;1.00;;;0.60;;
10471;SDS011;5283;48.876;8.962;2023-04-24T00:47:57;1.60;;;0.70;;
10471;SDS011;5283;48.876;8.962;2023-04-24T00:50:24;2.47;;;0.80;;
10471;SDS011;5283;48.876;8.962;2023-04-24T00:52:52;2.83;;;0.73;;
10471;SDS011;5283;48.876;8.962;2023-04-24T00:55:19;0.87;;;0.47;;
10471;SDS011;5283;48.876;8.962;2023-04-24T00:57:46;1.50;;;0.60;;
10471;SDS011;5283;48.876;8.962;2023-04-24T01:00:14;1.83;;;0.90;;
10471;SDS011;5283;48.876;8.962;2023-04-24T01:02:43;1.00;;;0.60;;
10471;SDS011;5283;48.876;8.962;2023-04-24T01:05:12;0.97;;;0.60;;
10471;SDS011;5283;48.876;8.962;2023-04-24T01:07:40;1.70;;;0.77;;
10471;SDS011;5283;48.876;8.962;2023-04-24T01:10:11;2.83;;;0.73;;
10471;SDS011;5283;48.876;8.962;2023-04-24T01:12:39;1.60;;;0.70;;
10471;SDS011;5283;48.876;8.962;2023-04-24T01:15:07;1.43;;;0.60;;
10471;SDS011;5283;48.876;8.962;2023-04-24T01:17:34;1.57;;;0.90;;
10471;SDS011;5283;48.876;8.962;2023-04-24T01:20:02;1.77;;;0.70;;
10471;SDS011;5283;48.876;8.962;2023-04-24T01:22:35;1.33;;;0.60;;
10471;SDS011;5283;48.876;8.962;2023-04-24T01:25:03;1.80;;;0.70;;
10471;SDS011;5283;48.876;8.962;2023-04-24T01:27:30;2.50;;;0.80;;
10471;SDS011;5283;48.876;8.962;2023-04-24T01:29:57;0.93;;;0.60;;
10471;SDS011;5283;48.876;8.962;2023-04-24T01:32:25;0.97;;;0.77;;
10471;SDS011;5283;48.876;8.962;2023-04-24T01:34:52;1.97;;;0.80;;
10471;SDS011;5283;48.876;8.962;2023-04-24T01:37:19;1.40;;;0.50;;
10471;SDS011;5283;48.876;8.962;2023-04-24T01:39:45;3.23;;;0.80;;
10471;SDS011;5283;48.876;8.962;2023-04-24T01:42:12;0.97;;;0.80;;
10471;SDS011;5283;48.876;8.962;2023-04-24T01:44:40;0.67;;;0.63;;
10471;SDS011;5283;48.876;8.962;2023-04-24T01:47:08;2.30;;;1.10;;
10471;SDS011;5283;48.876;8.962;2023-04-24T01:49:35;0.67;;;0.60;;
10471;SDS011;5283;48.876;8.962;2023-04-24T01:52:04;1.43;;;0.70;;
10471;SDS011;5283;48.876;8.962;2023-04-24T01:54:31;1.97;;;0.60;;
10471;SDS011;5283;48.876;8.962;2023-04-24T01:56:57;0.80;;;0.80;;
10471;SDS011;5283;48.876;8.962;2023-04-24T01:59:24;2.43;;;1.00;;
10471;SDS011;5283;48.876;8.962;2023-04-24T02:01:53;2.93;;;1.00;;
10471;SDS011;5283;48.876;8.962;2023-04-24T02:04:30;2.63;;;0.90;;
10471;SDS011;5283;48.876;8.962;2023-04-24T02:06:56;2.83;;;0.70;;
10471;SDS011;5283;48.876;8.962;2023-04-24T02:09:23;1.20;;;1.10;;
10471;SDS011;5283;48.876;8.962;2023-04-24T02:11:50;2.70;;;0.70;;
10471;SDS011;5283;48.876;8.962;2023-04-24T02:14:17;0.80;;;0.80;;
10471;SDS011;5283;48.876;8.962;2023-04-24T02:16:44;3.33;;;0.70;;
10471;SDS011;5283;48.876;8.962;2023-04-24T02:19:11;1.83;;;0.93;;
10471;SDS011;5283;48.876;8.962;2023-04-24T02:21:38;2.20;;;0.73;;
10471;SDS011;5283;48.876;8.962;2023-04-24T02:24:05;3.03;;;1.00;;
10471;SDS011;5283;48.876;8.962;2023-04-24T02:26:32;3.67;;;1.00;;
10471;SDS011;5283;48.876;8.962;2023-04-24T02:28:59;2.37;;;0.77;;
10471;SDS011;5283;48.876;8.962;2023-04-24T02:31:26;1.57;;;1.20;;
10471;SDS011;5283;48.876;8.962;2023-04-24T02:33:52;1.30;;;0.90;;
10471;SDS011;5283;48.876;8.962;2023-04-24T02:36:19;2.70;;;1.00;;
10471;SDS011;5283;48.876;8.962;2023-04-24T02:38:46;2.17;;;0.90;;
10471;SDS011;5283;48.876;8.962;2023-04-24T02:41:12;1.67;;;1.10;;
10471;SDS011;5283;48.876;8.962;2023-04-24T02:43:39;2.03;;;1.30;;
10471;SDS011;5283;48.876;8.962;2023-04-24T02:46:06;1.87;;;0.87;;
10471;SDS011;5283;48.876;8.962;2023-04-24T02:48:33;2.07;;;1.10;;
10471;SDS011;5283;48.876;8.962;2023-04-24T02:53:49;2.37;;;1.30;;
10471;SDS011;5283;48.876;8.962;2023-04-24T02:56:16;2.67;;;1.23;;
10471;SDS011;5283;48.876;8.962;2023-04-24T02:58:44;2.23;;;1.30;;
10471;SDS011;5283;48.876;8.962;2023-04-24T03:01:11;1.50;;;1.17;;
10471;SDS011;5283;48.876;8.962;2023-04-24T03:03:38;4.53;;;1.30;;
10471;SDS011;5283;48.876;8.962;2023-04-24T03:06:05;2.20;;;1.20;;
10471;SDS011;5283;48.876;8.962;2023-04-24T03:08:34;2.50;;;1.63;;
10471;SDS011;5283;48.876;8.962;2023-04-24T03:11:01;3.33;;;1.50;;
10471;SDS011;5283;48.876;8.962;2023-04-24T03:13:28;2.00;;;1.20;;
10471;SDS011;5283;48.876;8.962;2023-04-24T03:15:55;2.53;;;1.33;;
10471;SDS011;5283;48.876;8.962;2023-04-24T03:18:22;1.20;;;1.10;;
10471;SDS011;5283;48.876;8.962;2023-04-24T03:20:49;1.67;;;1.40;;
10471;SDS011;5283;48.876;8.962;2023-04-24T03:23:16;1.47;;;1.37;;
10471;SDS011;5283;48.876;8.962;2023-04-24T03:25:42;1.30;;;1.20;;
10471;SDS011;5283;48.876;8.962;2023-04-24T03:28:14;2.37;;;1.60;;
10471;SDS011;5283;48.876;8.962;2023-04-24T03:30:41;1.57;;;1.40;;
10471;SDS011;5283;48.876;8.962;2023-04-24T03:33:07;2.13;;;1.50;;
10471;SDS011;5283;48.876;8.962;2023-04-24T03:35:35;2.87;;;1.77;;
10471;SDS011;5283;48.876;8.962;2023-04-24T03:38:04;2.50;;;1.83;;
10471;SDS011;5283;48.876;8.962;2023-04-24T03:40:30;1.70;;;1.60;;
10471;SDS011;5283;48.876;8.962;2023-04-24T03:42:59;1.63;;;1.53;;
10471;SDS011;5283;48.876;8.962;2023-04-24T03:45:26;2.57;;;1.93;;
10471;SDS011;5283;48.876;8.962;2023-04-24T03:47:53;3.10;;;1.53;;
10471;SDS011;5283;48.876;8.962;2023-04-24T03:50:20;2.00;;;1.80;;
10471;SDS011;5283;48.876;8.962;2023-04-24T03:52:46;1.63;;;1.53;;
10471;SDS011;5283;48.876;8.962;2023-04-24T03:55:13;1.87;;;1.77;;
10471;SDS011;5283;48.876;8.962;2023-04-24T03:57:40;2.63;;;1.90;;
10471;SDS011;5283;48.876;8.962;2023-04-24T04:00:08;2.57;;;1.70;;
10471;SDS011;5283;48.876;8.962;2023-04-24T04:02:43;11.63;;;2.43;;
10471;SDS011;5283;48.876;8.962;2023-04-24T04:05:10;7.50;;;2.33;;
10471;SDS011;5283;48.876;8.962;2023-04-24T04:07:37;2.40;;;1.70;;
10471;SDS011;5283;48.876;8.962;2023-04-24T04:10:04;4.10;;;1.83;;
10471;SDS011;5283;48.876;8.962;2023-04-24T04:12:33;2.40;;;1.60;;
10471;SDS011;5283;48.876;8.962;2023-04-24T04:14:59;2.40;;;1.80;;
10471;SDS011;5283;48.876;8.962;2023-04-24T04:17:26;3.30;;;1.60;;
10471;SDS011;5283;48.876;8.962;2023-04-24T04:19:53;4.00;;;1.93;;
10471;SDS011;5283;48.876;8.962;2023-04-24T04:22:21;2.83;;;2.00;;
10471;SDS011;5283;48.876;8.962;2023-04-24T04:24:47;2.60;;;1.60;;
10471;SDS011;5283;48.876;8.962;2023-04-24T04:27:18;2.77;;;1.70;;
10471;SDS011;5283;48.876;8.962;2023-04-24T04:29:45;2.23;;;1.70;;
10471;SDS011;5283;48.876;8.962;2023-04-24T04:32:11;1.60;;;1.50;;
10471;SDS011;5283;48.876;8.962;2023-04-24T04:34:38;2.63;;;1.47;;
10471;SDS011;5283;48.876;8.962;2023-04-24T04:37:05;1.50;;;1.40;;
10471;SDS011;5283;48.876;8.962;2023-04-24T04:42:04;1.87;;;1.57;;
10471;SDS011;5283;48.876;8.962;2023-04-24T04:44:33;1.60;;;1.50;;
10471;SDS011;5283;48.876;8.962;2023-04-24T04:47:02;2.63;;;2.00;;
10471;SDS011;5283;48.876;8.962;2023-04-24T04:49:32;2.03;;;1.77;;
10471;SDS011;5283;48.876;8.962;2023-04-24T04:51:59;1.80;;;1.70;;
10471;SDS011;5283;48.876;8.962;2023-04-24T04:54:27;2.20;;;2.00;;
10471;SDS011;5283;48.876;8.962;2023-04-24T04:56:54;2.20;;;1.90;;
10471;SDS011;5283;48.876;8.962;2023-04-24T04:59:21;3.43;;;2.20;;
10471;SDS011;5283;48.876;8.962;2023-04-24T05:01:48;2.10;;;2.00;;
10471;SDS011;5283;48.876;8.962;2023-04-24T05:04:15;3.03;;;2.23;;
10471;SDS011;5283;48.876;8.962;2023-04-24T05:06:43;2.27;;;2.07;;
10471;SDS011;5283;48.876;8.962;2023-04-24T05:09:10;2.33;;;2.13;;
10471;SDS011;5283;48.876;8.962;2023-04-24T05:11:37;2.93;;;2.60;;
10471;SDS011;5283;48.876;8.962;2023-04-24T05:14:04;3.00;;;2.70;;
10471;SDS011;5283;48.876;8.962;2023-04-24T05:16:31;4.73;;;2.77;;
10471;SDS011;5283;48.876;8.962;2023-04-24T05:18:58;3.07;;;2.37;;
10471;SDS011;5283;48.876;8.962;2023-04-24T05:21:24;4.57;;;2.60;;
10471;SDS011;5283;48.876;8.962;2023-04-24T05:23:51;2.70;;;2.00;;
10471;SDS011;5283;48.876;8.962;2023-04-24T05:26:18;3.13;;;2.60;;
10471;SDS011;5283;48.876;8.962;2023-04-24T05:28:45;2.70;;;2.50;;
10471;SDS011;5283;48.876;8.962;2023-04-24T05:31:12;2.50;;;2.30;;
10471;SDS011;5283;48.876;8.962;2023-04-24T05:33:38;3.57;;;2.30;;
10471;SDS011;5283;48.876;8.962;2023-04-24T05:36:05;3.53;;;2.33;;
10471;SDS011;5283;48.876;8.962;2023-04-24T05:38:44;3.03;;;2.57;;
10471;SDS011;5283;48.876;8.962;2023-04-24T05:41:11;3.43;;;2.67;;
10471;SDS011;5283;48.876;8.962;2023-04-24T05:43:42;2.73;;;2.20;;
10471;SDS011;5283;48.876;8.962;2023-04-24T05:46:11;2.50;;;2.30;;
10471;SDS011;5283;48.876;8.962;2023-04-24T05:48:37;2.33;;;2.17;;
10471;SDS011;5283;48.876;8.962;2023-04-24T05:51:04;3.67;;;2.10;;
10471;SDS011;5283;48.876;8.962;2023-04-24T05:53:31;1.70;;;1.60;;
10471;SDS011;5283;48.876;8.962;2023-04-24T05:55:58;2.00;;;1.77;;
10471;SDS011;5283;48.876;8.962;2023-04-24T05:58:24;2.40;;;1.80;;
10471;SDS011;5283;48.876;8.962;2023-04-24T06:00:52;2.63;;;2.20;;
10471;SDS011;5283;48.876;8.962;2023-04-24T06:03:19;2.90;;;2.50;;
10471;SDS011;5283;48.876;8.962;2023-04-24T06:05:47;2.00;;;1.80;;
10471;SDS011;5283;48.876;8.962;2023-04-24T06:08:15;1.80;;;1.70;;
10471;SDS011;5283;48.876;8.962;2023-04-24T06:10:44;2.70;;;1.70;;
10471;SDS011;5283;48.876;8.962;2023-04-24T06:13:11;2.83;;;1.80;;
10471;SDS011;5283;48.876;8.962;2023-04-24T06:15:38;1.93;;;1.80;;
10471;SDS011;5283;48.876;8.962;2023-04-24T06:18:04;3.47;;;1.73;;
10471;SDS011;5283;48.876;8.962;2023-04-24T06:20:31;1.30;;;1.20;;
10471;SDS011;5283;48.876;8.962;2023-04-24T06:22:58;1.30;;;1.20;;
10471;SDS011;5283;48.876;8.962;2023-04-24T06:25:25;2.00;;;1.40;;
10471;SDS011;5283;48.876;8.962;2023-04-24T06:27:53;3.47;;;1.33;;
10471;SDS011;5283;48.876;8.962;2023-04-24T06:30:20;2.90;;;1.70;;
10471;SDS011;5283;48.876;8.962;2023-04-24T06:32:47;1.50;;;1.40;;
10471;SDS011;5283;48.876;8.962;2023-04-24T06:35:14;2.47;;;1.80;;
10471;SDS011;5283;48.876;8.962;2023-04-24T06:37:41;2.17;;;2.00;;
10471;SDS011;5283;48.876;8.962;2023-04-24T06:40:09;2.03;;;1.60;;
10471;SDS011;5283;48.876;8.962;2023-04-24T06:42:36;2.47;;;1.80;;
10471;SDS011;5283;48.876;8.962;2023-04-24T06:47:33;2.30;;;1.63;;
10471;SDS011;5283;48.876;8.962;2023-04-24T06:50:00;1.80;;;1.70;;
10471;SDS011;5283;48.876;8.962;2023-04-24T06:52:27;2.50;;;1.87;;
10471;SDS011;5283;48.876;8.962;2023-04-24T06:54:59;2.47;;;1.60;;
10471;SDS011;5283;48.876;8.962;2023-04-24T06:57:27;1.80;;;1.70;;
10471;SDS011;5283;48.876;8.962;2023-04-24T06:59:54;2.40;;;1.73;;
10471;SDS011;5283;48.876;8.962;2023-04-24T07:02:22;2.20;;;1.73;;
10471;SDS011;5283;48.876;8.962;2023-04-24T07:04:49;2.33;;;1.77;;
10471;SDS011;5283;48.876;8.962;2023-04-24T07:07:15;3.37;;;1.20;;
10471;SDS011;5283;48.876;8.962;2023-04-24T07:09:42;1.70;;;1.60;;
10471;SDS011;5283;48.876;8.962;2023-04-24T07:12:10;1.97;;;1.77;;
10471;SDS011;5283;48.876;8.962;2023-04-24T07:14:38;1.70;;;1.57;;
10471;SDS011;5283;48.876;8.962;2023-04-24T07:17:04;2.10;;;1.53;;
10471;SDS011;5283;48.876;8.962;2023-04-24T07:19:35;2.43;;;1.40;;
10471;SDS011;5283;48.876;8.962;2023-04-24T07:22:02;2.00;;;1.90;;
10471;SDS011;5283;48.876;8.962;2023-04-24T07:24:30;2.70;;;1.87;;
10471;SDS011;5283;48.876;8.962;2023-04-24T07:27:02;2.03;;;1.60;;
10471;SDS011;5283;48.876;8.962;2023-04-24T07:29:29;1.80;;;1.70;;
10471;SDS011;5283;48.876;8.962;2023-04-24T07:31:56;2.00;;;1.53;;
10471;SDS011;5283;48.876;8.962;2023-04-24T07:34:22;2.13;;;1.63;;
10471;SDS011;5283;48.876;8.962;2023-04-24T07:36:49;2.77;;;1.67;;
10471;SDS011;5283;48.876;8.962;2023-04-24T07:39:16;2.00;;;1.80;;
10471;SDS011;5283;48.876;8.962;2023-04-24T07:41:47;1.70;;;1.60;;
10471;SDS011;5283;48.876;8.962;2023-04-24T07:44:14;2.63;;;1.60;;
10471;SDS011;5283;48.876;8.962;2023-04-24T07:46:41;1.90;;;1.70;;
10471;SDS011;5283;48.876;8.962;2023-04-24T07:49:08;2.20;;;1.70;;
10471;SDS011;5283;48.876;8.962;2023-04-24T07:51:38;2.67;;;1.90;;
10471;SDS011;5283;48.876;8.962;2023-04-24T07:54:05;1.50;;;1.40;;
10471;SDS011;5283;48.876;8.962;2023-04-24T07:56:32;1.63;;;1.53;;
10471;SDS011;5283;48.876;8.962;2023-04-24T07:58:59;3.33;;;1.57;;
10471;SDS011;5283;48.876;8.962;2023-04-24T08:01:27;1.60;;;1.50;;
10471;SDS011;5283;48.876;8.962;2023-04-24T08:03:53;1.50;;;1.40;;
10471;SDS011;5283;48.876;8.962;2023-04-24T08:06:20;2.77;;;1.50;;
10471;SDS011;5283;48.876;8.962;2023-04-24T08:08:47;2.50;;;1.70;;
10471;SDS011;5283;48.876;8.962;2023-04-24T08:11:16;1.97;;;1.40;;
10471;SDS011;5283;48.876;8.962;2023-04-24T08:13:43;1.40;;;1.30;;
10471;SDS011;5283;48.876;8.962;2023-04-24T08:16:10;2.00;;;1.07;;
10471;SDS011;5283;48.876;8.962;2023-04-24T08:18:45;2.37;;;1.70;;
10471;SDS011;5283;48.876;8.962;2023-04-24T08:21:11;2.23;;;1.40;;
10471;SDS011;5283;48.876;8.962;2023-04-24T08:23:43;1.87;;;1.30;;
10471;SDS011;5283;48.876;8.962;2023-04-24T08:26:10;1.37;;;1.27;;
10471;SDS011;5283;48.876;8.962;2023-04-24T08:28:37;1.67;;;1.53;;
10471;SDS011;5283;48.876;8.962;2023-04-24T08:31:04;1.73;;;1.40;;
10471;SDS011;5283;48.876;8.962;2023-04-24T08:33:31;3.47;;;1.30;;
10471;SDS011;5283;48.876;8.962;2023-04-24T08:36:01;1.53;;;1.00;;
10471;SDS011;5283;48.876;8.962;2023-04-24T08:38:29;1.13;;;0.93;;
10471;SDS011;5283;48.876;8.962;2023-04-24T08:40:57;1.57;;;1.00;;
10471;SDS011;5283;48.876;8.962;2023-04-24T08:43:25;2.00;;;1.10;;
10471;SDS011;5283;48.876;8.962;2023-04-24T08:45:55;2.00;;;1.07;;
10471;SDS011;5283;48.876;8.962;2023-04-24T08:48:22;1.73;;;1.10;;
10471;SDS011;5283;48.876;8.962;2023-04-24T08:50:55;1.47;;;1.23;;
10471;SDS011;5283;48.876;8.962;2023-04-24T08:53:23;2.17;;;1.20;;
10471;SDS011;5283;48.876;8.962;2023-04-24T08:55:52;1.47;;;1.27;;
10471;SDS011;5283;48.876;8.962;2023-04-24T08:58:22;2.13;;;1.13;;
10471;SDS011;5283;48.876;8.962;2023-04-24T09:00:56;1.23;;;0.80;;
10471;SDS011;5283;48.876;8.962;2023-04-24T09:03:24;1.80;;;0.80;;
10471;SDS011;5283;48.876;8.962;2023-04-24T09:05:53;1.30;;;0.77;;
10471;SDS011;5283;48.876;8.962;2023-04-24T09:08:22;0.97;;;0.80;;
10471;SDS011;5283;48.876;8.962;2023-04-24T09:10:51;2.27;;;1.03;;
10471;SDS011;5283;48.876;8.962;2023-04-24T09:13:18;0.70;;;0.70;;
10471;SDS011;5283;48.876;8.962;2023-04-24T09:15:46;1.13;;;0.90;;
10471;SDS011;5283;48.876;8.962;2023-04-24T09:18:13;2.07;;;1.07;;
10471;SDS011;5283;48.876;8.962;2023-04-24T09:23:30;4.00;;;0.70;;
10471;SDS011;5283;48.876;8.962;2023-04-24T09:25:58;1.80;;;0.90;;
10471;SDS011;5283;48.876;8.962;2023-04-24T09:28:31;1.27;;;0.93;;
10471;SDS011;5283;48.876;8.962;2023-04-24T09:31:14;2.50;;;1.10;;
10471;SDS011;5283;48.876;8.962;2023-04-24T09:33:54;2.27;;;1.17;;
10471;SDS011;5283;48.876;8.962;2023-04-24T09:36:27;2.67;;;1.30;;
10471;SDS011;5283;48.876;8.962;2023-04-24T09:39:04;2.40;;;1.23;;
10471;SDS011;5283;48.876;8.962;2023-04-24T09:41:34;2.40;;;1.23;;
10471;SDS011;5283;48.876;8.962;2023-04-24T09:44:11;0.90;;;0.90;;
10471;SDS011;5283;48.876;8.962;2023-04-24T09:46:40;2.13;;;1.10;;
10471;SDS011;5283;48.876;8.962;2023-04-24T09:49:08;2.40;;;1.43;;
10471;SDS011;5283;48.876;8.962;2023-04-24T09:51:37;1.10;;;1.00;;
10471;SDS011;5283;48.876;8.962;2023-04-24T09:54:04;1.87;;;1.60;;
10471;SDS011;5283;48.876;8.962;2023-04-24T09:56:42;1.30;;;1.20;;
10471;SDS011;5283;48.876;8.962;2023-04-24T09:59:14;2.57;;;1.13;;
10471;SDS011;5283;48.876;8.962;2023-04-24T10:01:41;1.20;;;1.20;;
10471;SDS011;5283;48.876;8.962;2023-04-24T10:04:15;1.40;;;1.27;;
10471;SDS011;5283;48.876;8.962;2023-04-24T10:06:44;1.37;;;1.20;;
10471;SDS011;5283;48.876;8.962;2023-04-24T10:09:13;1.70;;;1.50;;
10471;SDS011;5283;48.876;8.962;2023-04-24T10:11:41;2.80;;;1.40;;
10471;SDS011;5283;48.876;8.962;2023-04-24T10:14:12;3.30;;;1.70;;
10471;SDS011;5283;48.876;8.962;2023-04-24T10:16:39;1.23;;;1.20;;
10471;SDS011;5283;48.876;8.962;2023-04-24T10:19:07;1.57;;;1.47;;
10471;SDS011;5283;48.876;8.962;2023-04-24T10:21:34;1.67;;;1.40;;
10471;SDS011;5283;48.876;8.962;2023-04-24T10:24:04;1.93;;;1.80;;
10471;SDS011;5283;48.876;8.962;2023-04-24T10:26:34;2.93;;;1.43;;
10471;SDS011;5283;48.876;8.962;2023-04-24T10:29:01;1.97;;;1.37;;
10471;SDS011;5283;48.876;8.962;2023-04-24T10:31:30;1.90;;;1.50;;
10471;SDS011;5283;48.876;8.962;2023-04-24T10:33:59;2.10;;;1.50;;
10471;SDS011;5283;48.876;8.962;2023-04-24T10:36:27;1.60;;;1.50;;
10471;SDS011;5283;48.876;8.962;2023-04-24T10:38:58;1.30;;;1.20;;
10471;SDS011;5283;48.876;8.962;2023-04-24T10:41:28;2.03;;;1.40;;
10471;SDS011;5283;48.876;8.962;2023-04-24T10:44:10;1.90;;;1.10;;
10471;SDS011;5283;48.876;8.962;2023-04-24T10:46:46;1.07;;;1.00;;
10471;SDS011;5283;48.876;8.962;2023-04-24T10:49:27;1.50;;;1.37;;
10471;SDS011;5283;48.876;8.962;2023-04-24T10:52:00;1.37;;;1.27;;
10471;SDS011;5283;48.876;8.962;2023-04-24T10:54:29;2.00;;;1.20;;
10471;SDS011;5283;48.876;8.962;2023-04-24T10:59:49;1.43;;;1.03;;
10471;SDS011;5283;48.876;8.962;2023-04-24T11:02:18;1.40;;;1.27;;
10471;SDS011;5283;48.876;8.962;2023-04-24T11:05:04;5.43;;;1.20;;
10471;SDS011;5283;48.876;8.962;2023-04-24T11:08:15;1.40;;;1.30;;
10471;SDS011;5283;48.876;8.962;2023-04-24T11:21:48;3.00;;;1.77;;
10471;SDS011;5283;48.876;8.962;2023-04-24T11:27:20;1.47;;;1.30;;
10471;SDS011;5283;48.876;8.962;2023-04-24T11:32:27;1.47;;;1.37;;
10471;SDS011;5283;48.876;8.962;2023-04-24T11:35:08;1.20;;;1.10;;
10471;SDS011;5283;48.876;8.962;2023-04-24T11:37:40;1.80;;;1.00;;
10471;SDS011;5283;48.876;8.962;2023-04-24T11:40:13;1.50;;;1.10;;
10471;SDS011;5283;48.876;8.962;2023-04-24T11:42:45;1.33;;;1.23;;
10471;SDS011;5283;48.876;8.962;2023-04-24T11:45:14;1.80;;;1.20;;
10471;SDS011;5283;48.876;8.962;2023-04-24T11:47:43;1.70;;;1.60;;
10471;SDS011;5283;48.876;8.962;2023-04-24T11:50:12;1.97;;;1.70;;
10471;SDS011;5283;48.876;8.962;2023-04-24T11:52:40;2.10;;;1.70;;
10471;SDS011;5283;48.876;8.962;2023-04-24T11:55:22;2.77;;;2.00;;
10471;SDS011;5283;48.876;8.962;2023-04-24T11:57:51;2.20;;;2.00;;
10471;SDS011;5283;48.876;8.962;2023-04-24T12:00:26;2.47;;;1.80;;
10471;SDS011;5283;48.876;8.962;2023-04-24T12:03:05;1.70;;;1.60;;
10471;SDS011;5283;48.876;8.962;2023-04-24T12:05:33;1.53;;;1.43;;
10471;SDS011;5283;48.876;8.962;2023-04-24T12:08:01;1.80;;;1.63;;
10471;SDS011;5283;48.876;8.962;2023-04-24T12:10:28;1.83;;;1.40;;
10471;SDS011;5283;48.876;8.962;2023-04-24T12:12:56;2.70;;;1.20;;
10471;SDS011;5283;48.876;8.962;2023-04-24T12:15:24;1.30;;;1.20;;
10471;SDS011;5283;48.876;8.962;2023-04-24T12:17:52;2.03;;;1.23;;
10471;SDS011;5283;48.876;8.962;2023-04-24T12:20:24;1.70;;;1.60;;
10471;SDS011;5283;48.876;8.962;2023-04-24T12:22:53;2.07;;;1.60;;
10471;SDS011;5283;48.876;8.962;2023-04-24T12:25:24;1.70;;;1.60;;
10471;SDS011;5283;48.876;8.962;2023-04-24T12:27:55;1.60;;;1.50;;
10471;SDS011;5283;48.876;8.962;2023-04-24T12:30:29;1.70;;;1.60;;
10471;SDS011;5283;48.876;8.962;2023-04-24T12:32:59;1.70;;;1.60;;
10471;SDS011;5283;48.876;8.962;2023-04-24T12:35:32;1.60;;;1.50;;
10471;SDS011;5283;48.876;8.962;2023-04-24T12:38:06;2.47;;;1.70;;
10471;SDS011;5283;48.876;8.962;2023-04-24T12:40:34;1.40;;;1.30;;
10471;SDS011;5283;48.876;8.962;2023-04-24T12:43:12;2.33;;;1.27;;
10471;SDS011;5283;48.876;8.962;2023-04-24T12:45:49;0.93;;;0.93;;
10471;SDS011;5283;48.876;8.962;2023-04-24T12:48:17;1.10;;;0.90;;
10471;SDS011;5283;48.876;8.962;2023-04-24T12:50:43;1.27;;;1.17;;
10471;SDS011;5283;48.876;8.962;2023-04-24T12:53:12;1.30;;;1.20;;
10471;SDS011;5283;48.876;8.962;2023-04-24T12:55:40;1.60;;;1.50;;
10471;SDS011;5283;48.876;8.962;2023-04-24T12:58:08;2.17;;;1.60;;
10471;SDS011;5283;48.876;8.962;2023-04-24T13:00:34;2.17;;;1.97;;
10471;SDS011;5283;48.876;8.962;2023-04-24T13:03:02;2.10;;;2.00;;
10471;SDS011;5283;48.876;8.962;2023-04-24T13:05:29;2.77;;;2.57;;
10471;SDS011;5283;48.876;8.962;2023-04-24T13:07:57;2.53;;;2.10;;
10471;SDS011;5283;48.876;8.962;2023-04-24T13:10:23;2.70;;;2.07;;
10471;SDS011;5283;48.876;8.962;2023-04-24T13:12:50;5.50;;;2.63;;
10471;SDS011;5283;48.876;8.962;2023-04-24T13:15:17;2.53;;;2.10;;
10471;SDS011;5283;48.876;8.962;2023-04-24T13:17:44;2.60;;;2.33;;
10471;SDS011;5283;48.876;8.962;2023-04-24T13:20:10;2.50;;;2.30;;
10471;SDS011;5283;48.876;8.962;2023-04-24T13:22:37;3.97;;;2.13;;
10471;SDS011;5283;48.876;8.962;2023-04-24T13:25:04;4.27;;;2.40;;
10471;SDS011;5283;48.876;8.962;2023-04-24T13:27:32;3.33;;;2.30;;
10471;SDS011;5283;48.876;8.962;2023-04-24T13:29:59;2.17;;;2.07;;
10471;SDS011;5283;48.876;8.962;2023-04-24T13:32:26;2.07;;;1.90;;
10471;SDS011;5283;48.876;8.962;2023-04-24T13:34:53;3.13;;;2.30;;
10471;SDS011;5283;48.876;8.962;2023-04-24T13:37:20;2.63;;;2.40;;
10471;SDS011;5283;48.876;8.962;2023-04-24T13:39:48;1.93;;;1.83;;
10471;SDS011;5283;48.876;8.962;2023-04-24T13:42:15;2.57;;;2.23;;
10471;SDS011;5283;48.876;8.962;2023-04-24T13:44:45;3.47;;;2.17;;
10471;SDS011;5283;48.876;8.962;2023-04-24T13:47:12;2.63;;;1.90;;
10471;SDS011;5283;48.876;8.962;2023-04-24T13:49:39;3.37;;;1.90;;
10471;SDS011;5283;48.876;8.962;2023-04-24T13:52:06;2.30;;;1.77;;
10471;SDS011;5283;48.876;8.962;2023-04-24T13:54:33;1.70;;;1.60;;
10471;SDS011;5283;48.876;8.962;2023-04-24T13:57:00;2.03;;;1.83;;
10471;SDS011;5283;48.876;8.962;2023-04-24T13:59:29;2.13;;;2.03;;
10471;SDS011;5283;48.876;8.962;2023-04-24T14:01:55;3.13;;;2.00;;
10471;SDS011;5283;48.876;8.962;2023-04-24T14:04:29;2.20;;;2.00;;
10471;SDS011;5283;48.876;8.962;2023-04-24T14:06:56;2.70;;;2.03;;
10471;SDS011;5283;48.876;8.962;2023-04-24T14:09:23;2.00;;;1.90;;
10471;SDS011;5283;48.876;8.962;2023-04-24T14:11:51;2.17;;;1.87;;
10471;SDS011;5283;48.876;8.962;2023-04-24T14:14:18;1.97;;;1.80;;
10471;SDS011;5283;48.876;8.962;2023-04-24T14:16:45;1.87;;;1.70;;
10471;SDS011;5283;48.876;8.962;2023-04-24T14:19:12;2.03;;;1.80;;
10471;SDS011;5283;48.876;8.962;2023-04-24T14:21:39;1.73;;;1.40;;
10471;SDS011;5283;48.876;8.962;2023-04-24T14:24:06;2.10;;;1.80;;
10471;SDS011;5283;48.876;8.962;2023-04-24T14:26:32;1.97;;;1.87;;
10471;SDS011;5283;48.876;8.962;2023-04-24T14:28:59;1.57;;;1.47;;
10471;SDS011;5283;48.876;8.962;2023-04-24T14:31:32;2.33;;;1.63;;
10471;SDS011;5283;48.876;8.962;2023-04-24T14:33:59;2.03;;;1.80;;
10471;SDS011;5283;48.876;8.962;2023-04-24T14:36:26;1.97;;;1.60;;
10471;SDS011;5283;48.876;8.962;2023-04-24T14:38:52;2.73;;;1.50;;
10471;SDS011;5283;48.876;8.962;2023-04-24T14:41:19;1.80;;;1.60;;
10471;SDS011;5283;48.876;8.962;2023-04-24T14:43:46;1.30;;;1.30;;
10471;SDS011;5283;48.876;8.962;2023-04-24T14:46:13;1.77;;;1.60;;
10471;SDS011;5283;48.876;8.962;2023-04-24T14:48:39;2.47;;;1.73;;
10471;SDS011;5283;48.876;8.962;2023-04-24T14:51:06;1.80;;;1.70;;
10471;SDS011;5283;48.876;8.962;2023-04-24T14:53:33;2.73;;;1.60;;
10471;SDS011;5283;48.876;8.962;2023-04-24T14:56:00;1.87;;;1.70;;
10471;SDS011;5283;48.876;8.962;2023-04-24T14:58:29;2.70;;;1.70;;
10471;SDS011;5283;48.876;8.962;2023-04-24T15:01:01;2.67;;;1.60;;
10471;SDS011;5283;48.876;8.962;2023-04-24T15:03:27;2.10;;;1.90;;
10471;SDS011;5283;48.876;8.962;2023-04-24T15:05:55;1.83;;;1.73;;
10471;SDS011;5283;48.876;8.962;2023-04-24T15:08:22;2.87;;;1.60;;
10471;SDS011;5283;48.876;8.962;2023-04-24T15:10:49;3.17;;;1.73;;
10471;SDS011;5283;48.876;8.962;2023-04-24T15:13:15;1.83;;;1.30;;
10471;SDS011;5283;48.876;8.962;2023-04-24T15:15:43;1.90;;;1.53;;
10471;SDS011;5283;48.876;8.962;2023-04-24T15:18:11;1.50;;;1.40;;
10471;SDS011;5283;48.876;8.962;2023-04-24T15:20:39;1.17;;;1.07;;
10471;SDS011;5283;48.876;8.962;2023-04-24T15:23:10;1.93;;;1.10;;
10471;SDS011;5283;48.876;8.962;2023-04-24T15:25:37;1.13;;;1.10;;
10471;SDS011;5283;48.876;8.962;2023-04-24T15:28:04;1.50;;;1.30;;
10471;SDS011;5283;48.876;8.962;2023-04-24T15:30:31;2.60;;;1.13;;
10471;SDS011;5283;48.876;8.962;2023-04-24T15:32:59;1.07;;;1.07;;
10471;SDS011;5283;48.876;8.962;2023-04-24T15:35:26;2.33;;;1.63;;
10471;SDS011;5283;48.876;8.962;2023-04-24T15:37:53;2.37;;;1.70;;